createdAt,value
2018-09-02T00:39:28.552Z,73.40
2018-09-02T00:41:57.091Z,70.30
2018-09-02T00:44:25.931Z,70.50
2018-09-02T00:46:54.713Z,69.80
2018-09-02T00:49:23.448Z,70.90
2018-09-02T00:51:52.099Z,70.90
2018-09-02T00:54:21.092Z,70.90
2018-09-02T00:56:49.737Z,71.60
2018-09-02T00:59:18.415Z,71.40
2018-09-02T01:01:47.537Z,71.70
2018-09-02T01:04:16.338Z,71.90
2018-09-02T01:06:44.988Z,72.00
2018-09-02T01:09:14.666Z,72.60
2018-09-02T01:11:43.515Z,72.30
2018-09-02T01:14:12.101Z,71.90
2018-09-02T01:16:40.807Z,73.20
2018-09-02T01:19:09.457Z,72.60
2018-09-02T01:21:38.178Z,72.40
2018-09-02T01:24:07.015Z,73.10
2018-09-02T01:26:36.182Z,72.30
2018-09-02T01:29:04.882Z,72.60
2018-09-02T01:31:33.524Z,72.30
2018-09-02T01:34:02.260Z,72.20
2018-09-02T01:36:31.010Z,72.80
2018-09-02T01:38:59.793Z,73.50
2018-09-02T01:41:28.793Z,73.10
2018-09-02T01:43:57.639Z,72.70
2018-09-02T01:46:26.768Z,72.80
2018-09-02T01:48:55.490Z,73.20
2018-09-02T01:51:24.139Z,73.10
2018-09-02T01:53:52.782Z,73.50
2018-09-02T01:56:21.346Z,73.30
2018-09-02T01:58:50.044Z,73.70
2018-09-02T02:01:18.631Z,74.00
2018-09-02T02:03:47.174Z,74.20
2018-09-02T02:06:15.774Z,74.60
2018-09-02T02:08:44.536Z,74.60
2018-09-02T02:11:13.225Z,74.50
2018-09-02T02:13:41.920Z,74.30
2018-09-02T02:16:10.385Z,75.00
2018-09-02T02:18:38.855Z,75.50
2018-09-02T02:21:07.441Z,75.40
2018-09-02T02:23:36.047Z,76.00
2018-09-02T02:26:04.708Z,75.20
2018-09-02T02:28:33.086Z,75.40
2018-09-02T02:31:01.518Z,76.30
2018-09-02T02:33:29.892Z,75.20
2018-09-02T02:35:58.267Z,75.30
2018-09-02T02:38:26.692Z,75.20
2018-09-02T02:40:55.223Z,75.80
2018-09-02T02:43:23.823Z,75.70
2018-09-02T02:45:52.283Z,74.60
2018-09-02T02:48:20.623Z,75.00
2018-09-02T02:50:49.200Z,75.40
2018-09-02T02:53:17.715Z,75.30
2018-09-02T02:55:46.182Z,76.30
2018-09-02T02:58:14.692Z,76.30
2018-09-02T03:00:43.239Z,75.60
2018-09-02T03:03:11.663Z,75.30
2018-09-02T03:05:40.193Z,75.50
2018-09-02T03:08:08.757Z,75.20
2018-09-02T03:10:37.177Z,75.80
2018-09-02T03:13:05.718Z,76.60
2018-09-02T03:15:34.548Z,76.10
2018-09-02T03:18:03.164Z,76.40
2018-09-02T03:20:31.718Z,77.00
2018-09-02T03:23:00.294Z,77.90
2018-09-02T03:25:28.845Z,76.90
2018-09-02T03:27:57.391Z,77.80
2018-09-02T03:30:25.883Z,77.20
2018-09-02T03:32:54.378Z,77.80
2018-09-02T03:35:22.849Z,77.40
2018-09-02T03:37:51.498Z,77.50
2018-09-02T03:40:19.989Z,77.50
2018-09-02T03:42:48.484Z,77.80
2018-09-02T03:45:16.841Z,78.40
2018-09-02T03:47:45.525Z,78.70
2018-09-02T03:50:14.110Z,77.30
2018-09-02T03:52:42.614Z,77.90
2018-09-02T03:55:12.063Z,77.80
2018-09-02T03:57:40.472Z,78.20
2018-09-02T04:00:09.029Z,78.00
2018-09-02T04:02:37.413Z,77.60
2018-09-02T04:05:06.301Z,77.90
2018-09-02T04:07:34.799Z,77.90
2018-09-02T04:10:03.176Z,79.00
2018-09-02T04:12:31.591Z,79.00
2018-09-02T04:15:00.218Z,80.20
2018-09-02T04:17:28.603Z,80.50
2018-09-02T04:19:56.998Z,81.00
2018-09-02T04:22:25.385Z,80.50
2018-09-02T04:24:53.722Z,81.00
2018-09-02T04:27:22.031Z,80.30
2018-09-02T04:29:50.349Z,79.60
2018-09-02T04:32:18.717Z,79.80
2018-09-02T04:34:47.151Z,79.50
2018-09-02T04:37:15.663Z,78.70
2018-09-02T04:39:44.180Z,78.70
2018-09-02T04:42:12.548Z,79.00
2018-09-02T04:44:40.937Z,80.60
2018-09-02T04:47:10.229Z,79.80
2018-09-02T04:49:38.578Z,80.70
2018-09-02T04:52:06.954Z,80.60
2018-09-02T04:54:35.352Z,80.30
2018-09-02T04:57:03.698Z,79.50
2018-09-02T04:59:32.032Z,80.10
2018-09-02T05:02:00.396Z,80.50
2018-09-02T05:04:28.923Z,80.00
2018-09-02T05:06:57.633Z,79.60
2018-09-02T05:09:26.190Z,79.60
2018-09-02T05:11:54.661Z,79.40
2018-09-02T05:14:23.130Z,79.90
2018-09-02T05:16:51.580Z,79.20
2018-09-02T05:19:19.930Z,80.70
2018-09-02T05:21:48.642Z,80.70
2018-09-02T05:24:16.948Z,80.60
2018-09-02T05:26:45.487Z,80.00
2018-09-02T05:29:13.854Z,80.40
2018-09-02T05:31:42.276Z,81.00
2018-09-02T05:34:10.813Z,81.30
2018-09-02T05:36:39.170Z,80.30
2018-09-02T05:39:08.899Z,81.50
2018-09-02T05:41:37.328Z,81.70
2018-09-02T05:44:05.910Z,82.20
2018-09-02T05:46:34.201Z,81.30
2018-09-02T05:49:02.968Z,82.50
2018-09-02T05:51:31.467Z,82.00
2018-09-02T05:53:59.890Z,82.10
2018-09-02T05:56:28.354Z,83.00
2018-09-02T05:58:58.702Z,82.10
2018-09-02T06:01:27.700Z,83.30
2018-09-02T06:03:56.156Z,82.80
2018-09-02T06:06:24.690Z,83.20
2018-09-02T06:08:53.046Z,83.10
2018-09-02T06:11:21.525Z,83.80
2018-09-02T06:13:51.863Z,84.40
2018-09-02T06:16:20.238Z,84.40
2018-09-02T06:18:49.767Z,83.40
2018-09-02T06:21:18.301Z,82.80
2018-09-02T06:23:46.604Z,81.40
2018-09-02T06:26:14.908Z,81.50
2018-09-02T06:28:43.274Z,80.20
2018-09-02T06:31:11.592Z,80.00
2018-09-02T06:33:40.032Z,79.90
2018-09-02T06:36:08.809Z,79.70
2018-09-02T06:38:37.261Z,79.10
2018-09-02T06:41:05.913Z,77.70
2018-09-02T06:43:34.245Z,77.70
2018-09-02T06:46:02.546Z,77.70
2018-09-02T06:48:31.066Z,77.60
2018-09-02T06:51:00.778Z,76.70
2018-09-02T06:53:30.822Z,77.30
2018-09-02T06:55:59.222Z,77.70
2018-09-02T06:58:27.699Z,77.30
2018-09-02T07:00:56.957Z,77.00
2018-09-02T07:03:25.489Z,76.60
2018-09-02T07:05:54.080Z,76.70
2018-09-02T07:08:22.471Z,75.80
2018-09-02T07:10:51.632Z,76.20
2018-09-02T07:13:25.474Z,75.30
2018-09-02T07:15:53.917Z,75.10
2018-09-02T07:18:22.320Z,74.20
2018-09-02T07:20:50.712Z,73.70
2018-09-02T07:23:21.440Z,73.90
2018-09-02T07:25:49.971Z,74.10
2018-09-02T07:28:19.330Z,73.00
2018-09-02T07:30:47.771Z,73.80
2018-09-02T07:33:16.485Z,74.90
2018-09-02T07:35:44.848Z,76.10
2018-09-02T07:38:13.257Z,76.10
2018-09-02T07:40:41.628Z,77.10
2018-09-02T07:43:10.171Z,77.70
2018-09-02T07:45:40.676Z,77.80
2018-09-02T07:48:09.260Z,78.30
2018-09-02T07:50:38.009Z,78.90
2018-09-02T07:53:06.663Z,78.80
2018-09-02T07:55:35.337Z,78.90
2018-09-02T07:58:10.381Z,78.40
2018-09-02T08:00:38.776Z,77.30
2018-09-02T08:03:07.191Z,77.80
2018-09-02T08:05:35.491Z,79.00
2018-09-02T08:08:03.792Z,78.30
2018-09-02T08:10:33.997Z,78.00
2018-09-02T08:13:07.467Z,77.70
2018-09-02T08:15:36.255Z,77.70
2018-09-02T08:18:05.087Z,78.20
2018-09-02T08:20:35.789Z,77.30
2018-09-02T08:23:04.159Z,77.10
2018-09-02T08:25:32.662Z,76.70
2018-09-02T08:28:01.103Z,76.20
2018-09-02T08:30:29.472Z,76.60
2018-09-02T08:32:57.852Z,77.00
2018-09-02T08:35:26.399Z,77.50
2018-09-02T08:37:56.951Z,77.60
2018-09-02T08:40:25.358Z,77.00
2018-09-02T08:42:54.966Z,76.10
2018-09-02T08:45:23.826Z,75.20
2018-09-02T08:47:52.513Z,74.70
2018-09-02T08:50:21.735Z,75.50
2018-09-02T08:52:50.274Z,75.80
2018-09-02T08:55:18.735Z,75.30
2018-09-02T08:57:47.472Z,75.40
2018-09-02T09:00:16.648Z,74.80
2018-09-02T09:02:45.328Z,74.60
2018-09-02T09:05:13.700Z,74.70
2018-09-02T09:07:42.185Z,73.60
2018-09-02T09:10:10.407Z,73.90
2018-09-02T09:12:40.196Z,74.00
2018-09-02T09:15:08.456Z,73.70
2018-09-02T09:17:36.694Z,73.30
2018-09-02T09:20:05.422Z,73.80
2018-09-02T09:22:33.690Z,74.40
2018-09-02T09:25:02.165Z,74.10
2018-09-02T09:27:30.707Z,73.50
2018-09-02T09:29:59.483Z,73.00
2018-09-02T09:32:27.995Z,72.70
2018-09-02T09:34:56.560Z,71.20
2018-09-02T09:37:25.998Z,71.10
2018-09-02T09:39:56.772Z,71.90
2018-09-02T09:42:25.261Z,71.30
2018-09-02T09:49:27.044Z,72.90
2018-09-02T10:37:45.304Z,72.20
2018-09-02T10:40:13.698Z,67.00
2018-09-02T10:42:42.039Z,66.70
2018-09-02T10:45:10.530Z,65.60
2018-09-02T10:47:38.835Z,65.80
2018-09-02T10:50:08.632Z,66.20
2018-09-02T10:52:37.123Z,65.80
2018-09-02T10:55:06.378Z,66.20
2018-09-02T10:57:34.910Z,65.80
2018-09-02T11:00:03.255Z,66.20
2018-09-02T11:02:31.802Z,65.40
2018-09-02T11:05:00.178Z,64.20
2018-09-02T11:07:28.535Z,63.30
2018-09-02T11:09:56.885Z,64.20
2018-09-02T11:12:25.207Z,63.10
2018-09-02T11:14:53.563Z,63.60
2018-09-02T11:17:22.033Z,62.90
2018-09-02T11:19:50.436Z,63.00
2018-09-02T11:22:26.309Z,61.50
2018-09-02T11:24:54.584Z,62.90
2018-09-02T11:27:22.868Z,62.10
2018-09-02T11:29:51.154Z,61.50
2018-09-02T11:32:19.474Z,63.00
2018-09-02T11:34:48.178Z,62.70
2018-09-02T11:37:16.689Z,61.60
2018-09-02T11:39:45.153Z,62.10
2018-09-02T11:42:13.483Z,60.60
2018-09-02T11:44:42.414Z,61.30
2018-09-02T11:47:11.160Z,58.50
2018-09-02T11:49:42.111Z,60.20
2018-09-02T11:52:10.506Z,59.10
2018-09-02T11:54:38.922Z,59.20
2018-09-02T11:57:07.321Z,59.10
2018-09-02T11:59:35.717Z,59.40
2018-09-02T12:02:05.008Z,60.20
2018-09-02T12:04:35.650Z,60.30
2018-09-02T12:07:05.762Z,58.80
2018-09-02T12:09:34.133Z,57.80
2018-09-02T12:12:04.791Z,58.10
2018-09-02T12:14:37.312Z,57.70
2018-09-02T12:17:06.009Z,58.20
2018-09-02T12:19:34.768Z,57.20
2018-09-02T12:22:08.118Z,58.70
2018-09-02T12:24:40.056Z,59.80
2018-09-02T12:27:15.594Z,56.90
2018-09-02T12:29:51.062Z,55.70
2018-09-02T12:35:47.950Z,53.00
2018-09-02T12:38:18.505Z,55.40
2018-09-02T12:40:54.743Z,55.30
2018-09-02T12:43:23.548Z,56.70
2018-09-02T12:45:52.806Z,53.60
2018-09-02T12:48:21.533Z,55.90
2018-09-02T12:50:50.143Z,54.80
2018-09-02T12:53:19.608Z,54.80
2018-09-02T12:55:48.320Z,56.80
2018-09-02T12:58:16.940Z,54.20
2018-09-02T13:00:46.680Z,53.60
2018-09-02T13:03:16.428Z,51.20
2018-09-02T13:05:45.386Z,53.30
2018-09-02T13:08:13.995Z,52.50
2018-09-02T13:10:57.880Z,51.20
2018-09-02T13:30:54.920Z,51.50
2018-09-02T13:33:29.958Z,51.00
2018-09-02T13:36:22.308Z,50.80
2018-09-02T13:41:55.875Z,47.70
2018-09-02T13:44:39.697Z,47.00
2018-09-02T14:11:44.373Z,52.20
2018-09-02T14:14:15.293Z,52.20
2018-09-02T14:16:46.071Z,53.40
2018-09-02T14:19:15.478Z,53.30
2018-09-02T14:21:58.111Z,52.70
2018-09-02T14:48:06.623Z,53.20
2018-09-02T14:50:36.131Z,51.60
2018-09-02T14:53:07.965Z,52.20
2018-09-02T14:55:37.059Z,51.90
2018-09-02T14:58:05.716Z,53.00
2018-09-02T15:00:35.204Z,52.00
2018-09-02T15:03:22.412Z,51.50
2018-09-02T15:08:30.668Z,52.00
2018-09-02T15:10:59.929Z,50.80
2018-09-02T15:13:34.218Z,51.60
2018-09-02T15:16:03.006Z,50.60
2018-09-02T15:18:32.177Z,51.50
2018-09-02T15:21:04.263Z,51.80
2018-09-02T15:23:32.796Z,50.80
2018-09-02T15:26:02.357Z,52.40
2018-09-02T15:31:07.497Z,53.50
2018-09-02T15:33:36.113Z,53.50
2018-09-02T15:36:04.903Z,53.50
2018-09-02T15:38:33.418Z,53.40
2018-09-02T15:41:01.783Z,53.60
2018-09-02T15:43:30.143Z,53.60
2018-09-02T15:45:58.646Z,54.30
2018-09-02T15:48:27.047Z,54.30
2018-09-02T15:50:55.545Z,54.30
2018-09-02T15:53:24.226Z,54.30
2018-09-02T15:55:52.693Z,52.40
2018-09-02T15:58:21.132Z,52.30
2018-09-02T16:00:50.123Z,52.50
2018-09-02T16:03:18.445Z,53.10
2018-09-02T16:05:46.868Z,53.40
2018-09-02T16:08:15.202Z,52.90
2018-09-02T16:10:43.510Z,53.60
2018-09-02T16:13:12.017Z,53.50
2018-09-02T16:15:40.429Z,53.60
2018-09-02T16:18:08.801Z,53.80
2018-09-02T16:20:37.276Z,53.90
2018-09-02T16:23:05.671Z,54.00
2018-09-02T16:25:34.379Z,53.30
2018-09-02T16:28:03.076Z,53.70
2018-09-02T16:30:31.744Z,54.30
2018-09-02T16:33:00.187Z,54.30
2018-09-02T16:35:28.587Z,54.80
2018-09-02T16:38:01.396Z,56.80
2018-09-02T16:40:32.844Z,57.00
2018-09-02T16:43:04.085Z,58.40
2018-09-02T16:46:00.496Z,58.90
2018-09-02T16:48:33.956Z,60.00
2018-09-02T16:51:14.036Z,59.70
2018-09-02T16:53:52.509Z,59.80
2018-09-02T16:56:21.949Z,60.00
2018-09-02T16:58:51.749Z,60.70
2018-09-02T17:01:29.951Z,61.60
2018-09-02T17:04:03.699Z,61.30
2018-09-02T17:06:38.894Z,62.30
2018-09-02T17:09:27.121Z,62.70
2018-09-02T17:20:21.274Z,63.60
2018-09-02T17:22:50.657Z,64.40
2018-09-02T17:25:19.447Z,64.70
2018-09-02T17:27:49.442Z,64.80
2018-09-02T17:30:18.451Z,64.40
2018-09-02T17:32:47.875Z,64.60
2018-09-02T17:35:18.229Z,65.40
2018-09-02T17:37:46.924Z,64.20
2018-09-02T17:40:15.519Z,63.80
2018-09-02T17:42:43.925Z,64.30
2018-09-02T17:45:12.669Z,64.50
2018-09-02T17:47:41.655Z,64.70
2018-09-02T17:50:10.386Z,65.00
2018-09-02T17:52:39.191Z,66.20
2018-09-02T17:55:07.845Z,65.80
2018-09-02T17:57:37.707Z,66.00
2018-09-02T18:00:07.580Z,66.30
2018-09-02T18:02:35.993Z,66.70
2018-09-02T18:05:04.623Z,66.20
2018-09-02T18:07:34.189Z,66.60
2018-09-02T18:10:04.241Z,66.70
2018-09-02T18:12:44.852Z,67.70
2018-09-02T18:15:17.196Z,67.20
2018-09-02T18:17:46.811Z,67.60
2018-09-02T18:20:16.045Z,68.10
2018-09-02T18:22:50.041Z,67.80
2018-09-02T18:25:22.361Z,68.10
2018-09-02T18:27:56.834Z,68.80
2018-09-02T18:30:29.680Z,69.20
2018-09-02T18:32:58.860Z,69.00
2018-09-02T18:35:28.586Z,69.30
2018-09-02T18:37:58.048Z,69.60
2018-09-02T18:40:29.637Z,69.80
2018-09-02T18:43:06.419Z,70.00
2018-09-02T18:45:37.131Z,70.50
2018-09-02T18:48:08.220Z,71.00
2018-09-02T18:50:41.658Z,71.70
2018-09-02T18:53:10.352Z,72.50
2018-09-02T18:55:39.321Z,72.40
2018-09-02T18:58:07.939Z,72.10
2018-09-02T19:00:36.515Z,73.10
2018-09-02T19:03:07.142Z,73.30
2018-09-02T19:05:35.750Z,73.10
2018-09-02T19:08:04.236Z,73.60
2018-09-02T19:10:33.042Z,72.90
2018-09-02T19:13:01.618Z,72.70
2018-09-02T19:15:30.166Z,73.90
2018-09-02T19:17:58.756Z,74.10
2018-09-02T19:23:33.122Z,74.10
2018-09-02T19:26:04.873Z,74.50
2018-09-02T19:28:34.173Z,74.20
2018-09-02T19:31:04.298Z,74.90
2018-09-02T19:33:32.988Z,75.60
2018-09-02T19:36:02.390Z,75.00
2018-09-02T19:38:34.424Z,75.30
2018-09-02T19:41:07.605Z,75.70
2018-09-02T19:43:36.331Z,76.60
2018-09-02T19:46:06.377Z,76.40
2018-09-02T19:48:36.245Z,75.60
2018-09-02T19:51:06.818Z,76.00
2018-09-02T19:53:35.870Z,76.10
2018-09-02T19:56:04.822Z,76.30
2018-09-02T19:58:33.435Z,75.50
2018-09-02T20:01:02.808Z,75.30
2018-09-02T20:03:31.692Z,75.80
2018-09-02T20:08:49.509Z,76.80
2018-09-02T20:11:19.154Z,76.80
2018-09-02T20:13:47.731Z,77.20
2018-09-02T20:16:19.932Z,76.40
2018-09-02T20:18:48.548Z,76.60
2018-09-02T20:21:17.183Z,76.20
2018-09-02T20:23:47.150Z,76.70
2018-09-02T20:26:15.639Z,77.40
2018-09-02T20:28:44.463Z,76.60
2018-09-02T20:31:13.915Z,76.60
2018-09-02T20:33:43.740Z,76.80
2018-09-02T20:36:21.988Z,76.00
2018-09-02T20:38:51.810Z,76.30
2018-09-02T20:41:21.296Z,76.50
2018-09-02T20:43:55.075Z,76.40
2018-09-02T20:46:33.266Z,76.20
2018-09-02T20:49:02.909Z,76.20
2018-09-02T20:51:32.201Z,76.60
2018-09-02T20:54:01.770Z,76.30
2018-09-02T20:56:30.844Z,76.40
2018-09-02T20:59:00.318Z,76.20
2018-09-02T21:01:33.377Z,76.20
2018-09-02T21:04:03.516Z,76.20
2018-09-02T21:06:33.304Z,76.10
2018-09-02T21:09:05.112Z,76.00
2018-09-02T21:11:34.640Z,75.80
2018-09-02T21:14:03.547Z,75.50
2018-09-02T21:16:32.378Z,75.40
2018-09-02T21:19:01.179Z,75.40
2018-09-02T21:21:29.881Z,74.90
2018-09-02T21:23:58.574Z,74.60
2018-09-02T21:26:27.354Z,74.70
2018-09-02T21:28:55.918Z,74.90
2018-09-02T21:31:24.553Z,75.40
2018-09-02T21:33:53.390Z,75.10
2018-09-02T21:39:23.238Z,75.00
2018-09-02T21:41:52.038Z,75.40
2018-09-02T21:44:22.098Z,75.70
2018-09-02T21:46:51.060Z,74.90
2018-09-02T21:49:22.160Z,75.00
2018-09-02T21:51:51.324Z,74.60
2018-09-02T21:54:22.054Z,74.70
2018-09-02T21:56:50.668Z,74.40
2018-09-02T21:59:22.450Z,74.20
2018-09-02T22:01:52.139Z,74.40
2018-09-02T22:04:28.917Z,74.90
2018-09-02T22:06:57.733Z,75.00
2018-09-02T22:09:29.492Z,74.40
2018-09-02T22:12:00.527Z,74.70
2018-09-02T22:14:31.359Z,74.70
2018-09-02T22:17:00.437Z,74.70
2018-09-02T22:19:29.445Z,75.00
2018-09-02T22:22:11.042Z,75.20
2018-09-02T22:24:41.070Z,74.70
2018-09-02T22:27:09.978Z,75.10
2018-09-02T22:29:38.867Z,75.70
2018-09-02T22:32:08.976Z,76.30
2018-09-02T22:34:37.810Z,76.30
2018-09-02T22:37:07.622Z,76.90
2018-09-02T22:39:37.830Z,77.10
2018-09-02T22:42:07.182Z,76.80
2018-09-02T22:44:35.946Z,77.30
2018-09-02T22:47:07.643Z,77.20
2018-09-02T22:49:40.412Z,76.90
2018-09-02T22:52:12.063Z,77.60
2018-09-02T22:54:40.908Z,78.30
2018-09-02T22:57:16.945Z,78.30
2018-09-02T22:59:46.026Z,78.30
2018-09-02T23:02:15.148Z,78.10
2018-09-02T23:04:44.244Z,77.60
2018-09-02T23:07:19.906Z,78.30
2018-09-02T23:45:08.254Z,78.80
2018-09-02T23:47:38.105Z,81.00
2018-09-02T23:50:09.060Z,81.30
2018-09-02T23:52:37.985Z,80.60
2018-09-02T23:55:07.001Z,81.20
2018-09-02T23:57:36.515Z,81.40
